MMMX/MEX METAR and TAF weather

Enter ICAO airport designator
Station Type Date Time Source
MMMX METAR 2022/11/26 09:45 UTC NOAA

MMMX 260945Z 16005KT 10SM SKC 14/09 A3031 NOSIG RMK HZY SC


Station Type Date Time Source
MMMX Decoded METAR 2022/11/26 09:45 UTC NOAA

Mexico City / Licenci, Mexico (MMMX) 19-26N 099-06W
Nov 26, 2022 - 04:45 AM EST / 2022.11.26 0945 UTC
Wind: from the SSE (160 degrees) at 6 MPH (5 KT):0
Visibility: 10 mile(s):0
Sky conditions: clear
Temperature: 57 F (14 C)
Dew Point: 48 F (9 C)
Relative Humidity: 71%
Pressure (altimeter): 30.31 in. Hg (1026 hPa)
ob: MMMX 260945Z 16005KT 10SM SKC 14/09 A3031 NOSIG RMK HZY SC
cycle: 10

Station Type Date Time Source
MMMX TAF 2022/11/26 06:18 UTC NOAA

TAF MMMX 260511Z 2606/2712 15007KT P6SM SKC TX24/2621Z TN10/2612Z
TEMPO 2612/2616 4SM HZ
FM261800 19012KT P6SM SCT020 SCT080 BKN250
FM270600 12005KT P6SM SCT020

Example: see airport list